sensor_id;sensor_type;location;lat;lon;timestamp;pressure;altitude;pressure_sealevel;temperature;humidity
48888;BME280;42598;53.802;-1.632;2023-01-30T00:00:54;100780.59;;;3.76;95.04
48888;BME280;42598;53.802;-1.632;2023-01-30T00:03:22;100779.17;;;3.82;93.22
48888;BME280;42598;53.802;-1.632;2023-01-30T00:05:51;100781.86;;;3.60;91.95
48888;BME280;42598;53.802;-1.632;2023-01-30T00:08:18;100772.82;;;3.66;93.31
48888;BME280;42598;53.802;-1.632;2023-01-30T00:10:46;100774.29;;;3.79;89.80
48888;BME280;42598;53.802;-1.632;2023-01-30T00:13:14;100776.65;;;4.80;86.15
48888;BME280;42598;53.802;-1.632;2023-01-30T00:15:42;100786.66;;;4.11;85.83
48888;BME280;42598;53.802;-1.632;2023-01-30T00:18:09;100779.79;;;4.39;85.67
48888;BME280;42598;53.802;-1.632;2023-01-30T00:20:36;100785.33;;;3.84;86.46
48888;BME280;42598;53.802;-1.632;2023-01-30T00:23:04;100788.53;;;4.42;83.59
48888;BME280;42598;53.802;-1.632;2023-01-30T00:25:31;100788.45;;;4.65;80.49
48888;BME280;42598;53.802;-1.632;2023-01-30T00:27:59;100805.39;;;3.91;82.25
48888;BME280;42598;53.802;-1.632;2023-01-30T00:30:27;100809.04;;;4.01;82.25
48888;BME280;42598;53.802;-1.632;2023-01-30T00:32:55;100812.64;;;2.89;84.93
48888;BME280;42598;53.802;-1.632;2023-01-30T00:35:22;100812.24;;;3.72;82.91
48888;BME280;42598;53.802;-1.632;2023-01-30T00:37:49;100805.33;;;3.03;84.68
48888;BME280;42598;53.802;-1.632;2023-01-30T00:40:16;100811.48;;;4.03;81.27
48888;BME280;42598;53.802;-1.632;2023-01-30T00:42:44;100823.42;;;3.07;84.61
48888;BME280;42598;53.802;-1.632;2023-01-30T00:45:11;100821.52;;;3.39;82.91
48888;BME280;42598;53.802;-1.632;2023-01-30T00:47:38;100817.61;;;3.28;83.20
48888;BME280;42598;53.802;-1.632;2023-01-30T00:50:06;100825.79;;;3.13;87.54
48888;BME280;42598;53.802;-1.632;2023-01-30T00:52:33;100820.13;;;3.47;84.70
48888;BME280;42598;53.802;-1.632;2023-01-30T00:55:00;100820.72;;;3.68;82.41
48888;BME280;42598;53.802;-1.632;2023-01-30T00:57:27;100820.12;;;4.08;81.17
48888;BME280;42598;53.802;-1.632;2023-01-30T00:59:55;100822.19;;;3.53;82.90
48888;BME280;42598;53.802;-1.632;2023-01-30T01:02:22;100817.58;;;3.89;81.62
48888;BME280;42598;53.802;-1.632;2023-01-30T01:04:50;100821.38;;;3.74;80.31
48888;BME280;42598;53.802;-1.632;2023-01-30T01:07:17;100818.02;;;3.11;81.26
48888;BME280;42598;53.802;-1.632;2023-01-30T01:09:44;100832.12;;;3.37;81.68
48888;BME280;42598;53.802;-1.632;2023-01-30T01:12:11;100823.81;;;4.25;79.44
48888;BME280;42598;53.802;-1.632;2023-01-30T01:14:38;100829.21;;;3.57;81.36
48888;BME280;42598;53.802;-1.632;2023-01-30T01:17:05;100832.60;;;4.43;78.44
48888;BME280;42598;53.802;-1.632;2023-01-30T01:19:33;100831.10;;;4.80;76.96
48888;BME280;42598;53.802;-1.632;2023-01-30T01:22:01;100850.62;;;4.01;80.46
48888;BME280;42598;53.802;-1.632;2023-01-30T01:24:28;100837.84;;;3.46;82.37
48888;BME280;42598;53.802;-1.632;2023-01-30T01:26:55;100834.08;;;4.23;81.30
48888;BME280;42598;53.802;-1.632;2023-01-30T01:29:23;100834.45;;;4.35;77.84
48888;BME280;42598;53.802;-1.632;2023-01-30T01:31:50;100836.06;;;4.33;78.37
48888;BME280;42598;53.802;-1.632;2023-01-30T01:34:18;100847.95;;;4.73;76.34
48888;BME280;42598;53.802;-1.632;2023-01-30T01:36:47;100845.90;;;5.00;74.11
48888;BME280;42598;53.802;-1.632;2023-01-30T01:39:15;100836.22;;;5.88;71.62
48888;BME280;42598;53.802;-1.632;2023-01-30T01:41:42;100841.18;;;4.86;72.96
48888;BME280;42598;53.802;-1.632;2023-01-30T01:44:11;100844.38;;;4.76;73.82
48888;BME280;42598;53.802;-1.632;2023-01-30T01:46:42;100848.66;;;4.53;73.70
48888;BME280;42598;53.802;-1.632;2023-01-30T01:49:14;100853.62;;;5.74;69.41
48888;BME280;42598;53.802;-1.632;2023-01-30T01:51:48;100853.28;;;6.28;67.97
48888;BME280;42598;53.802;-1.632;2023-01-30T01:54:24;100851.96;;;6.70;65.61
48888;BME280;42598;53.802;-1.632;2023-01-30T01:56:53;100851.30;;;6.72;65.49
48888;BME280;42598;53.802;-1.632;2023-01-30T01:59:22;100841.62;;;4.79;72.63
48888;BME280;42598;53.802;-1.632;2023-01-30T02:01:53;100844.76;;;5.63;71.12
48888;BME280;42598;53.802;-1.632;2023-01-30T02:04:21;100852.35;;;4.70;73.33
48888;BME280;42598;53.802;-1.632;2023-01-30T02:06:50;100853.48;;;4.86;73.55
48888;BME280;42598;53.802;-1.632;2023-01-30T02:09:17;100847.56;;;4.64;74.77
48888;BME280;42598;53.802;-1.632;2023-01-30T02:11:48;100855.17;;;4.33;75.10
48888;BME280;42598;53.802;-1.632;2023-01-30T02:14:19;100848.43;;;4.69;75.17
48888;BME280;42598;53.802;-1.632;2023-01-30T02:16:46;100855.44;;;5.61;72.05
48888;BME280;42598;53.802;-1.632;2023-01-30T02:19:23;100864.50;;;4.81;72.83
48888;BME280;42598;53.802;-1.632;2023-01-30T02:22:15;100862.46;;;4.26;75.54
48888;BME280;42598;53.802;-1.632;2023-01-30T02:25:13;100863.61;;;4.99;73.97
48888;BME280;42598;53.802;-1.632;2023-01-30T02:28:32;100871.77;;;4.30;75.84
48888;BME280;42598;53.802;-1.632;2023-01-30T02:31:13;100872.03;;;4.61;75.11
48888;BME280;42598;53.802;-1.632;2023-01-30T02:33:53;100879.74;;;4.13;75.88
48888;BME280;42598;53.802;-1.632;2023-01-30T02:36:27;100880.63;;;4.10;75.94
48888;BME280;42598;53.802;-1.632;2023-01-30T02:39:03;100887.11;;;4.81;74.07
48888;BME280;42598;53.802;-1.632;2023-01-30T02:41:36;100876.43;;;5.89;70.83
48888;BME280;42598;53.802;-1.632;2023-01-30T02:44:11;100876.60;;;5.27;70.26
48888;BME280;42598;53.802;-1.632;2023-01-30T02:46:49;100878.56;;;6.18;68.36
48888;BME280;42598;53.802;-1.632;2023-01-30T02:49:24;100869.77;;;6.22;66.96
48888;BME280;42598;53.802;-1.632;2023-01-30T02:51:53;100884.75;;;5.72;68.96
48888;BME280;42598;53.802;-1.632;2023-01-30T02:54:22;100890.99;;;5.05;70.73
48888;BME280;42598;53.802;-1.632;2023-01-30T02:56:51;100887.56;;;6.57;66.47
48888;BME280;42598;53.802;-1.632;2023-01-30T02:59:22;100894.20;;;7.64;62.86
48888;BME280;42598;53.802;-1.632;2023-01-30T03:02:04;100888.48;;;5.82;65.08
48888;BME280;42598;53.802;-1.632;2023-01-30T03:04:53;100898.63;;;5.74;64.82
48888;BME280;42598;53.802;-1.632;2023-01-30T03:07:33;100898.64;;;6.11;66.09
48888;BME280;42598;53.802;-1.632;2023-01-30T03:10:08;100896.50;;;4.45;70.41
48888;BME280;42598;53.802;-1.632;2023-01-30T03:12:43;100918.02;;;4.33;71.62
48888;BME280;42598;53.802;-1.632;2023-01-30T03:15:19;100907.49;;;4.81;72.38
48888;BME280;42598;53.802;-1.632;2023-01-30T03:17:50;100921.95;;;5.09;70.08
48888;BME280;42598;53.802;-1.632;2023-01-30T03:20:19;100927.53;;;4.34;73.33
48888;BME280;42598;53.802;-1.632;2023-01-30T03:22:46;100936.75;;;4.33;73.60
48888;BME280;42598;53.802;-1.632;2023-01-30T03:25:17;100945.14;;;3.86;74.97
48888;BME280;42598;53.802;-1.632;2023-01-30T03:27:45;100942.13;;;5.28;71.01
48888;BME280;42598;53.802;-1.632;2023-01-30T03:30:14;100955.83;;;4.70;71.90
48888;BME280;42598;53.802;-1.632;2023-01-30T03:32:41;100936.96;;;5.02;71.64
48888;BME280;42598;53.802;-1.632;2023-01-30T03:35:09;100941.68;;;4.77;73.17
48888;BME280;42598;53.802;-1.632;2023-01-30T03:37:36;100932.90;;;5.65;71.21
48888;BME280;42598;53.802;-1.632;2023-01-30T03:40:04;100948.71;;;4.77;72.45
48888;BME280;42598;53.802;-1.632;2023-01-30T03:42:32;100953.86;;;3.98;76.68
48888;BME280;42598;53.802;-1.632;2023-01-30T03:44:59;100958.80;;;4.90;72.41
48888;BME280;42598;53.802;-1.632;2023-01-30T03:47:26;100968.86;;;5.07;72.02
48888;BME280;42598;53.802;-1.632;2023-01-30T03:49:53;100966.74;;;4.86;71.55
48888;BME280;42598;53.802;-1.632;2023-01-30T03:52:20;100963.74;;;4.30;74.64
48888;BME280;42598;53.802;-1.632;2023-01-30T03:54:47;100961.09;;;4.91;71.89
48888;BME280;42598;53.802;-1.632;2023-01-30T03:57:14;100967.64;;;4.83;73.07
48888;BME280;42598;53.802;-1.632;2023-01-30T03:59:41;100965.25;;;5.25;70.18
48888;BME280;42598;53.802;-1.632;2023-01-30T04:02:09;100970.65;;;3.92;73.69
48888;BME280;42598;53.802;-1.632;2023-01-30T04:04:36;100975.75;;;4.89;72.09
48888;BME280;42598;53.802;-1.632;2023-01-30T04:07:03;100980.28;;;4.13;74.50
48888;BME280;42598;53.802;-1.632;2023-01-30T04:09:30;100988.03;;;4.60;73.12
48888;BME280;42598;53.802;-1.632;2023-01-30T04:11:57;100984.86;;;4.25;74.15
48888;BME280;42598;53.802;-1.632;2023-01-30T04:14:23;100983.40;;;4.76;73.08
48888;BME280;42598;53.802;-1.632;2023-01-30T04:16:51;100980.31;;;5.14;69.54
48888;BME280;42598;53.802;-1.632;2023-01-30T04:19:18;100985.34;;;5.88;67.58
48888;BME280;42598;53.802;-1.632;2023-01-30T04:21:45;100994.94;;;5.41;67.86
48888;BME280;42598;53.802;-1.632;2023-01-30T04:24:12;100985.62;;;4.69;70.31
48888;BME280;42598;53.802;-1.632;2023-01-30T04:26:40;100980.61;;;4.54;71.39
48888;BME280;42598;53.802;-1.632;2023-01-30T04:29:06;100989.75;;;4.55;72.69
48888;BME280;42598;53.802;-1.632;2023-01-30T04:31:34;100990.51;;;3.88;75.58
48888;BME280;42598;53.802;-1.632;2023-01-30T04:34:01;100996.65;;;3.61;77.11
48888;BME280;42598;53.802;-1.632;2023-01-30T04:36:28;101004.30;;;3.39;79.83
48888;BME280;42598;53.802;-1.632;2023-01-30T04:38:56;101001.11;;;3.31;79.68
48888;BME280;42598;53.802;-1.632;2023-01-30T04:41:23;101002.49;;;3.61;79.13
48888;BME280;42598;53.802;-1.632;2023-01-30T04:43:51;101007.00;;;3.84;80.44
48888;BME280;42598;53.802;-1.632;2023-01-30T04:46:17;101012.51;;;3.59;80.50
48888;BME280;42598;53.802;-1.632;2023-01-30T04:48:44;100999.23;;;4.31;77.67
48888;BME280;42598;53.802;-1.632;2023-01-30T04:51:11;101004.85;;;3.91;77.07
48888;BME280;42598;53.802;-1.632;2023-01-30T04:53:44;100997.69;;;3.70;78.12
48888;BME280;42598;53.802;-1.632;2023-01-30T04:56:10;101000.85;;;4.32;75.76
48888;BME280;42598;53.802;-1.632;2023-01-30T04:58:37;101007.21;;;4.80;73.49
48888;BME280;42598;53.802;-1.632;2023-01-30T05:01:13;100998.35;;;4.18;77.19
48888;BME280;42598;53.802;-1.632;2023-01-30T05:03:40;101001.83;;;4.21;74.86
48888;BME280;42598;53.802;-1.632;2023-01-30T05:06:07;100996.97;;;3.94;78.17
48888;BME280;42598;53.802;-1.632;2023-01-30T05:08:34;101012.42;;;3.64;78.97
48888;BME280;42598;53.802;-1.632;2023-01-30T05:11:01;101012.73;;;3.99;80.27
48888;BME280;42598;53.802;-1.632;2023-01-30T05:13:28;101010.83;;;4.69;77.27
48888;BME280;42598;53.802;-1.632;2023-01-30T05:15:54;101009.46;;;4.57;77.26
48888;BME280;42598;53.802;-1.632;2023-01-30T05:18:21;101013.25;;;3.90;76.91
48888;BME280;42598;53.802;-1.632;2023-01-30T05:20:49;101007.25;;;4.35;76.08
48888;BME280;42598;53.802;-1.632;2023-01-30T05:23:16;101006.70;;;3.93;76.94
48888;BME280;42598;53.802;-1.632;2023-01-30T05:25:43;101019.05;;;3.90;76.97
48888;BME280;42598;53.802;-1.632;2023-01-30T05:28:10;101004.25;;;4.76;73.92
48888;BME280;42598;53.802;-1.632;2023-01-30T05:30:37;101029.05;;;4.12;76.63
48888;BME280;42598;53.802;-1.632;2023-01-30T05:33:04;101022.13;;;3.86;77.34
48888;BME280;42598;53.802;-1.632;2023-01-30T05:35:31;101024.24;;;4.24;76.20
48888;BME280;42598;53.802;-1.632;2023-01-30T05:38:03;101021.75;;;3.76;76.71
48888;BME280;42598;53.802;-1.632;2023-01-30T05:40:35;101027.56;;;4.04;77.24
48888;BME280;42598;53.802;-1.632;2023-01-30T05:43:02;101032.82;;;3.93;77.64
48888;BME280;42598;53.802;-1.632;2023-01-30T05:45:30;101032.99;;;3.70;79.68
48888;BME280;42598;53.802;-1.632;2023-01-30T05:47:57;101030.69;;;4.33;76.71
48888;BME280;42598;53.802;-1.632;2023-01-30T05:50:23;101042.58;;;3.79;79.42
48888;BME280;42598;53.802;-1.632;2023-01-30T05:52:51;101040.97;;;3.99;79.60
48888;BME280;42598;53.802;-1.632;2023-01-30T05:55:24;101042.00;;;4.36;79.19
48888;BME280;42598;53.802;-1.632;2023-01-30T05:57:51;101053.49;;;4.31;79.66
48888;BME280;42598;53.802;-1.632;2023-01-30T06:00:18;101057.28;;;3.24;83.46
48888;BME280;42598;53.802;-1.632;2023-01-30T06:02:46;101054.82;;;3.86;82.93
48888;BME280;42598;53.802;-1.632;2023-01-30T06:05:17;101055.99;;;3.52;84.19
48888;BME280;42598;53.802;-1.632;2023-01-30T06:07:49;101058.91;;;3.26;84.96
48888;BME280;42598;53.802;-1.632;2023-01-30T06:10:17;101054.51;;;4.02;81.22
48888;BME280;42598;53.802;-1.632;2023-01-30T06:12:44;101064.57;;;4.07;82.73
48888;BME280;42598;53.802;-1.632;2023-01-30T06:15:11;101070.69;;;3.88;82.43
48888;BME280;42598;53.802;-1.632;2023-01-30T06:17:41;101063.53;;;3.53;84.30
48888;BME280;42598;53.802;-1.632;2023-01-30T06:20:10;101073.22;;;3.37;84.51
48888;BME280;42598;53.802;-1.632;2023-01-30T06:22:37;101086.27;;;3.27;84.36
48888;BME280;42598;53.802;-1.632;2023-01-30T06:25:05;101081.80;;;3.14;86.09
48888;BME280;42598;53.802;-1.632;2023-01-30T06:27:32;101072.19;;;3.07;86.47
48888;BME280;42598;53.802;-1.632;2023-01-30T06:29:59;101066.94;;;3.48;84.52
48888;BME280;42598;53.802;-1.632;2023-01-30T06:32:26;101057.22;;;3.21;85.26
48888;BME280;42598;53.802;-1.632;2023-01-30T06:34:53;101061.50;;;3.00;89.67
48888;BME280;42598;53.802;-1.632;2023-01-30T06:37:20;101058.22;;;3.21;89.44
48888;BME280;42598;53.802;-1.632;2023-01-30T06:39:47;101059.18;;;3.10;88.30
48888;BME280;42598;53.802;-1.632;2023-01-30T06:42:15;101065.00;;;2.76;92.28
48888;BME280;42598;53.802;-1.632;2023-01-30T06:44:42;101063.94;;;3.13;91.58
48888;BME280;42598;53.802;-1.632;2023-01-30T06:47:09;101065.15;;;2.68;93.91
48888;BME280;42598;53.802;-1.632;2023-01-30T06:49:36;101071.22;;;2.77;93.66
48888;BME280;42598;53.802;-1.632;2023-01-30T06:52:03;101078.30;;;2.58;93.93
48888;BME280;42598;53.802;-1.632;2023-01-30T06:54:30;101074.81;;;2.55;93.90
48888;BME280;42598;53.802;-1.632;2023-01-30T06:56:57;101065.38;;;2.41;93.45
48888;BME280;42598;53.802;-1.632;2023-01-30T06:59:24;101063.52;;;2.39;92.64
48888;BME280;42598;53.802;-1.632;2023-01-30T07:01:51;101053.08;;;2.85;92.03
48888;BME280;42598;53.802;-1.632;2023-01-30T07:04:19;101053.06;;;2.55;92.74
48888;BME280;42598;53.802;-1.632;2023-01-30T07:06:46;101049.66;;;2.24;96.34
48888;BME280;42598;53.802;-1.632;2023-01-30T07:09:13;101057.22;;;2.24;98.01
48888;BME280;42598;53.802;-1.632;2023-01-30T07:11:40;101058.43;;;2.43;97.04
48888;BME280;42598;53.802;-1.632;2023-01-30T07:14:17;101059.46;;;2.36;97.76
48888;BME280;42598;53.802;-1.632;2023-01-30T07:16:50;101056.85;;;2.53;97.83
48888;BME280;42598;53.802;-1.632;2023-01-30T07:19:17;101056.79;;;2.38;96.57
48888;BME280;42598;53.802;-1.632;2023-01-30T07:21:44;101056.37;;;2.39;97.37
48888;BME280;42598;53.802;-1.632;2023-01-30T07:24:18;101062.18;;;2.45;96.08
48888;BME280;42598;53.802;-1.632;2023-01-30T07:26:47;101062.43;;;2.43;96.75
48888;BME280;42598;53.802;-1.632;2023-01-30T07:29:14;101068.00;;;2.30;98.48
48888;BME280;42598;53.802;-1.632;2023-01-30T07:31:41;101077.99;;;2.10;99.34
48888;BME280;42598;53.802;-1.632;2023-01-30T07:34:08;101081.99;;;2.29;98.57
48888;BME280;42598;53.802;-1.632;2023-01-30T07:36:35;101080.96;;;2.61;98.50
48888;BME280;42598;53.802;-1.632;2023-01-30T07:39:03;101092.96;;;2.57;99.77
48888;BME280;42598;53.802;-1.632;2023-01-30T07:41:35;101102.63;;;2.21;100.00
48888;BME280;42598;53.802;-1.632;2023-01-30T07:44:02;101111.85;;;1.90;100.00
48888;BME280;42598;53.802;-1.632;2023-01-30T07:46:30;101108.27;;;2.40;100.00
48888;BME280;42598;53.802;-1.632;2023-01-30T07:48:57;101112.86;;;2.70;100.00
48888;BME280;42598;53.802;-1.632;2023-01-30T07:51:24;101113.97;;;2.96;100.00
48888;BME280;42598;53.802;-1.632;2023-01-30T07:53:51;101109.41;;;2.43;100.00
48888;BME280;42598;53.802;-1.632;2023-01-30T07:56:18;101128.27;;;2.71;100.00
48888;BME280;42598;53.802;-1.632;2023-01-30T07:58:46;101127.06;;;2.56;100.00
48888;BME280;42598;53.802;-1.632;2023-01-30T08:01:13;101138.21;;;3.02;96.38
48888;BME280;42598;53.802;-1.632;2023-01-30T08:03:40;101150.11;;;2.51;98.75
48888;BME280;42598;53.802;-1.632;2023-01-30T08:06:07;101149.47;;;2.55;97.53
48888;BME280;42598;53.802;-1.632;2023-01-30T08:08:34;101163.91;;;2.82;98.52
48888;BME280;42598;53.802;-1.632;2023-01-30T08:11:01;101171.66;;;3.13;97.06
48888;BME280;42598;53.802;-1.632;2023-01-30T08:13:29;101173.00;;;2.96;96.17
48888;BME280;42598;53.802;-1.632;2023-01-30T08:15:58;101176.92;;;2.69;98.89
48888;BME280;42598;53.802;-1.632;2023-01-30T08:18:27;101176.96;;;3.32;93.99
48888;BME280;42598;53.802;-1.632;2023-01-30T08:20:56;101185.20;;;2.85;97.01
48888;BME280;42598;53.802;-1.632;2023-01-30T08:23:22;101179.23;;;2.73;97.09
48888;BME280;42598;53.802;-1.632;2023-01-30T08:25:52;101189.31;;;3.21;95.51
48888;BME280;42598;53.802;-1.632;2023-01-30T08:28:20;101189.71;;;2.99;96.58
48888;BME280;42598;53.802;-1.632;2023-01-30T08:30:47;101184.33;;;2.64;97.89
48888;BME280;42598;53.802;-1.632;2023-01-30T08:33:14;101189.21;;;2.07;100.00
48888;BME280;42598;53.802;-1.632;2023-01-30T08:35:42;101188.22;;;2.41;100.00
48888;BME280;42598;53.802;-1.632;2023-01-30T08:38:09;101195.22;;;2.60;99.43
48888;BME280;42598;53.802;-1.632;2023-01-30T08:40:36;101207.06;;;2.80;99.33
48888;BME280;42598;53.802;-1.632;2023-01-30T08:43:04;101206.43;;;2.69;98.66
48888;BME280;42598;53.802;-1.632;2023-01-30T08:45:37;101207.99;;;2.76;98.55
48888;BME280;42598;53.802;-1.632;2023-01-30T08:48:05;101215.64;;;2.99;98.65
48888;BME280;42598;53.802;-1.632;2023-01-30T08:50:32;101224.87;;;3.41;95.19
48888;BME280;42598;53.802;-1.632;2023-01-30T08:53:03;101234.52;;;3.62;91.36
48888;BME280;42598;53.802;-1.632;2023-01-30T08:55:31;101253.19;;;3.96;91.05
48888;BME280;42598;53.802;-1.632;2023-01-30T08:57:58;101259.77;;;4.42;88.07
48888;BME280;42598;53.802;-1.632;2023-01-30T09:00:26;101259.22;;;3.97;89.39
48888;BME280;42598;53.802;-1.632;2023-01-30T09:02:55;101262.61;;;4.29;88.90
48888;BME280;42598;53.802;-1.632;2023-01-30T09:05:23;101257.76;;;3.65;90.48
48888;BME280;42598;53.802;-1.632;2023-01-30T09:07:50;101252.90;;;3.91;89.91
48888;BME280;42598;53.802;-1.632;2023-01-30T09:10:17;101254.42;;;3.82;90.41
48888;BME280;42598;53.802;-1.632;2023-01-30T09:12:45;101245.06;;;3.64;89.74
48888;BME280;42598;53.802;-1.632;2023-01-30T09:15:12;101247.90;;;3.54;91.30
48888;BME280;42598;53.802;-1.632;2023-01-30T09:17:39;101236.55;;;4.23;88.61
48888;BME280;42598;53.802;-1.632;2023-01-30T09:20:08;101228.98;;;3.65;91.01
48888;BME280;42598;53.802;-1.632;2023-01-30T09:22:36;101226.35;;;4.22;89.49
48888;BME280;42598;53.802;-1.632;2023-01-30T09:25:04;101225.17;;;3.43;93.50
48888;BME280;42598;53.802;-1.632;2023-01-30T09:27:31;101222.72;;;3.93;91.16
48888;BME280;42598;53.802;-1.632;2023-01-30T09:29:58;101243.73;;;3.68;91.61
48888;BME280;42598;53.802;-1.632;2023-01-30T09:32:25;101242.77;;;4.01;92.86
48888;BME280;42598;53.802;-1.632;2023-01-30T09:34:52;101238.11;;;3.74;92.44
48888;BME280;42598;53.802;-1.632;2023-01-30T09:37:19;101235.70;;;3.93;91.27
48888;BME280;42598;53.802;-1.632;2023-01-30T09:39:46;101250.56;;;4.13;89.84
48888;BME280;42598;53.802;-1.632;2023-01-30T09:42:56;101253.20;;;4.20;90.50
48888;BME280;42598;53.802;-1.632;2023-01-30T09:45:45;101257.00;;;5.16;85.76
48888;BME280;42598;53.802;-1.632;2023-01-30T09:48:20;101266.63;;;4.51;87.19
48888;BME280;42598;53.802;-1.632;2023-01-30T09:51:05;101277.91;;;4.74;86.07
48888;BME280;42598;53.802;-1.632;2023-01-30T09:53:46;101287.43;;;4.75;85.29
48888;BME280;42598;53.802;-1.632;2023-01-30T09:56:16;101285.63;;;5.10;84.26
48888;BME280;42598;53.802;-1.632;2023-01-30T09:58:46;101288.31;;;5.14;82.00
48888;BME280;42598;53.802;-1.632;2023-01-30T10:01:22;101283.85;;;5.40;79.44
48888;BME280;42598;53.802;-1.632;2023-01-30T10:04:02;101289.84;;;5.48;78.36
48888;BME280;42598;53.802;-1.632;2023-01-30T10:06:42;101291.35;;;5.62;77.71
48888;BME280;42598;53.802;-1.632;2023-01-30T10:09:14;101289.58;;;5.40;77.71
48888;BME280;42598;53.802;-1.632;2023-01-30T10:11:54;101296.74;;;5.87;76.75
48888;BME280;42598;53.802;-1.632;2023-01-30T10:14:41;101298.43;;;5.71;77.73
48888;BME280;42598;53.802;-1.632;2023-01-30T10:17:31;101291.89;;;6.29;76.21
48888;BME280;42598;53.802;-1.632;2023-01-30T10:20:09;101287.35;;;5.80;78.17
48888;BME280;42598;53.802;-1.632;2023-01-30T10:22:48;101269.21;;;6.15;75.53
48888;BME280;42598;53.802;-1.632;2023-01-30T10:25:25;101277.87;;;6.66;74.46
48888;BME280;42598;53.802;-1.632;2023-01-30T10:27:58;101285.20;;;6.11;75.19
48888;BME280;42598;53.802;-1.632;2023-01-30T10:30:28;101284.89;;;5.95;76.19
48888;BME280;42598;53.802;-1.632;2023-01-30T10:32:59;101290.54;;;6.95;72.08
48888;BME280;42598;53.802;-1.632;2023-01-30T10:35:32;101304.99;;;7.17;71.65
48888;BME280;42598;53.802;-1.632;2023-01-30T10:38:06;101305.63;;;6.61;74.77
48888;BME280;42598;53.802;-1.632;2023-01-30T10:40:40;101307.08;;;6.88;72.41
48888;BME280;42598;53.802;-1.632;2023-01-30T10:43:15;101311.86;;;6.40;72.88
48888;BME280;42598;53.802;-1.632;2023-01-30T10:45:53;101330.27;;;7.05;71.34
48888;BME280;42598;53.802;-1.632;2023-01-30T10:48:41;101337.83;;;8.02;68.06
48888;BME280;42598;53.802;-1.632;2023-01-30T10:51:18;101350.18;;;7.43;68.61
48888;BME280;42598;53.802;-1.632;2023-01-30T10:53:52;101356.99;;;8.24;64.94
48888;BME280;42598;53.802;-1.632;2023-01-30T10:56:27;101370.92;;;8.70;61.82
48888;BME280;42598;53.802;-1.632;2023-01-30T10:59:05;101367.78;;;8.65;62.86
48888;BME280;42598;53.802;-1.632;2023-01-30T11:01:38;101376.53;;;8.79;62.32
48888;BME280;42598;53.802;-1.632;2023-01-30T11:04:14;101372.81;;;8.29;62.80
48888;BME280;42598;53.802;-1.632;2023-01-30T11:06:45;101369.21;;;9.28;60.55
48888;BME280;42598;53.802;-1.632;2023-01-30T11:09:12;101362.56;;;8.23;63.05
48888;BME280;42598;53.802;-1.632;2023-01-30T11:11:47;101356.18;;;7.62;65.12
48888;BME280;42598;53.802;-1.632;2023-01-30T11:14:15;101348.65;;;8.44;62.20
48888;BME280;42598;53.802;-1.632;2023-01-30T11:16:45;101336.12;;;8.57;62.89
48888;BME280;42598;53.802;-1.632;2023-01-30T11:19:15;101336.36;;;9.61;59.70
48888;BME280;42598;53.802;-1.632;2023-01-30T11:21:47;101335.31;;;7.59;64.00
48888;BME280;42598;53.802;-1.632;2023-01-30T11:24:18;101343.51;;;8.23;65.09
48888;BME280;42598;53.802;-1.632;2023-01-30T11:26:46;101338.89;;;7.38;66.14
48888;BME280;42598;53.802;-1.632;2023-01-30T11:29:21;101343.33;;;7.90;65.93
48888;BME280;42598;53.802;-1.632;2023-01-30T11:31:50;101345.38;;;7.81;64.82
48888;BME280;42598;53.802;-1.632;2023-01-30T11:34:20;101358.30;;;8.70;64.52
48888;BME280;42598;53.802;-1.632;2023-01-30T11:36:49;101362.17;;;7.49;65.42
48888;BME280;42598;53.802;-1.632;2023-01-30T11:39:19;101378.52;;;7.48;65.36
48888;BME280;42598;53.802;-1.632;2023-01-30T11:41:57;101391.35;;;8.05;63.89
48888;BME280;42598;53.802;-1.632;2023-01-30T11:44:26;101404.96;;;8.01;65.80
48888;BME280;42598;53.802;-1.632;2023-01-30T11:46:53;101407.50;;;7.85;64.86
48888;BME280;42598;53.802;-1.632;2023-01-30T11:49:25;101410.98;;;7.98;64.12
48888;BME280;42598;53.802;-1.632;2023-01-30T11:51:56;101404.50;;;8.66;63.29
48888;BME280;42598;53.802;-1.632;2023-01-30T11:54:28;101405.74;;;8.80;61.46
48888;BME280;42598;53.802;-1.632;2023-01-30T11:56:58;101410.33;;;9.72;57.99
48888;BME280;42598;53.802;-1.632;2023-01-30T11:59:30;101407.59;;;9.34;59.74
48888;BME280;42598;53.802;-1.632;2023-01-30T12:02:04;101405.63;;;7.71;64.41
48888;BME280;42598;53.802;-1.632;2023-01-30T12:04:37;101405.60;;;8.30;61.71
48888;BME280;42598;53.802;-1.632;2023-01-30T12:07:09;101399.55;;;8.91;59.06
48888;BME280;42598;53.802;-1.632;2023-01-30T12:09:42;101392.00;;;9.68;57.64
48888;BME280;42598;53.802;-1.632;2023-01-30T12:12:27;101376.99;;;10.29;55.94
48888;BME280;42598;53.802;-1.632;2023-01-30T12:15:04;101383.02;;;9.08;58.88
48888;BME280;42598;53.802;-1.632;2023-01-30T12:17:41;101387.72;;;9.54;58.02
48888;BME280;42598;53.802;-1.632;2023-01-30T12:20:16;101385.70;;;10.54;53.96
48888;BME280;42598;53.802;-1.632;2023-01-30T12:22:53;101386.22;;;11.07;53.75
48888;BME280;42598;53.802;-1.632;2023-01-30T12:25:26;101387.14;;;9.32;57.26
48888;BME280;42598;53.802;-1.632;2023-01-30T12:27:58;101385.48;;;10.49;53.04
48888;BME280;42598;53.802;-1.632;2023-01-30T12:30:33;101390.41;;;11.65;51.09
48888;BME280;42598;53.802;-1.632;2023-01-30T12:33:04;101392.27;;;12.04;49.31
48888;BME280;42598;53.802;-1.632;2023-01-30T12:35:44;101399.63;;;11.38;50.62
48888;BME280;42598;53.802;-1.632;2023-01-30T12:38:25;101403.53;;;11.84;48.65
48888;BME280;42598;53.802;-1.632;2023-01-30T12:41:03;101407.64;;;11.99;47.57
48888;BME280;42598;53.802;-1.632;2023-01-30T12:43:40;101411.88;;;11.48;49.03
48888;BME280;42598;53.802;-1.632;2023-01-30T12:46:29;101424.13;;;9.76;54.29
48888;BME280;42598;53.802;-1.632;2023-01-30T12:49:09;101418.63;;;9.88;52.87
48888;BME280;42598;53.802;-1.632;2023-01-30T12:51:56;101413.89;;;10.79;53.39
48888;BME280;42598;53.802;-1.632;2023-01-30T12:54:36;101404.01;;;10.09;53.50
48888;BME280;42598;53.802;-1.632;2023-01-30T12:57:13;101400.45;;;9.91;54.26
48888;BME280;42598;53.802;-1.632;2023-01-30T12:59:54;101405.75;;;10.02;54.25
48888;BME280;42598;53.802;-1.632;2023-01-30T13:02:40;101409.14;;;10.00;52.94
48888;BME280;42598;53.802;-1.632;2023-01-30T13:05:21;101413.26;;;11.79;49.48
48888;BME280;42598;53.802;-1.632;2023-01-30T13:08:04;101422.02;;;10.55;51.19